sensor_id;sensor_type;location;lat;lon;timestamp;P1;durP1;ratioP1;P2;durP2;ratioP2
27293;SDS011;14785;52.556;13.430;2022-12-07T00:01:42;16.77;;;8.50;;
27293;SDS011;14785;52.556;13.430;2022-12-07T00:04:10;14.98;;;7.40;;
27293;SDS011;14785;52.556;13.430;2022-12-07T00:06:38;17.48;;;7.93;;
27293;SDS011;14785;52.556;13.430;2022-12-07T00:09:09;16.08;;;7.85;;
27293;SDS011;14785;52.556;13.430;2022-12-07T00:11:43;18.25;;;7.75;;
27293;SDS011;14785;52.556;13.430;2022-12-07T00:14:13;12.20;;;6.18;;
27293;SDS011;14785;52.556;13.430;2022-12-07T00:16:40;15.73;;;8.07;;
27293;SDS011;14785;52.556;13.430;2022-12-07T00:19:06;16.92;;;7.97;;
27293;SDS011;14785;52.556;13.430;2022-12-07T00:21:33;10.68;;;6.68;;
27293;SDS011;14785;52.556;13.430;2022-12-07T00:24:02;14.70;;;7.47;;
27293;SDS011;14785;52.556;13.430;2022-12-07T00:26:34;13.05;;;7.03;;
27293;SDS011;14785;52.556;13.430;2022-12-07T00:29:04;14.43;;;7.75;;
27293;SDS011;14785;52.556;13.430;2022-12-07T00:31:36;13.63;;;7.32;;
27293;SDS011;14785;52.556;13.430;2022-12-07T00:34:04;15.05;;;6.97;;
27293;SDS011;14785;52.556;13.430;2022-12-07T00:36:36;18.52;;;7.97;;
27293;SDS011;14785;52.556;13.430;2022-12-07T00:39:02;15.40;;;7.80;;
27293;SDS011;14785;52.556;13.430;2022-12-07T00:41:28;23.10;;;9.07;;
27293;SDS011;14785;52.556;13.430;2022-12-07T00:43:55;13.85;;;7.57;;
27293;SDS011;14785;52.556;13.430;2022-12-07T00:46:21;27.45;;;7.93;;
27293;SDS011;14785;52.556;13.430;2022-12-07T00:48:48;15.38;;;8.63;;
27293;SDS011;14785;52.556;13.430;2022-12-07T00:51:15;17.20;;;8.77;;
27293;SDS011;14785;52.556;13.430;2022-12-07T00:53:43;21.40;;;8.07;;
27293;SDS011;14785;52.556;13.430;2022-12-07T00:56:11;15.18;;;7.85;;
27293;SDS011;14785;52.556;13.430;2022-12-07T00:58:39;14.88;;;7.10;;
27293;SDS011;14785;52.556;13.430;2022-12-07T01:01:08;13.38;;;7.45;;
27293;SDS011;14785;52.556;13.430;2022-12-07T01:03:35;12.38;;;6.85;;
27293;SDS011;14785;52.556;13.430;2022-12-07T01:06:01;15.52;;;7.57;;
27293;SDS011;14785;52.556;13.430;2022-12-07T01:08:28;14.65;;;7.50;;
27293;SDS011;14785;52.556;13.430;2022-12-07T01:11:12;13.02;;;6.93;;
27293;SDS011;14785;52.556;13.430;2022-12-07T01:13:40;11.90;;;7.20;;
27293;SDS011;14785;52.556;13.430;2022-12-07T01:16:06;12.60;;;6.47;;
27293;SDS011;14785;52.556;13.430;2022-12-07T01:18:34;14.45;;;5.45;;
27293;SDS011;14785;52.556;13.430;2022-12-07T01:21:03;15.55;;;6.88;;
27293;SDS011;14785;52.556;13.430;2022-12-07T01:23:31;17.00;;;8.10;;
27293;SDS011;14785;52.556;13.430;2022-12-07T01:28:24;13.10;;;6.85;;
27293;SDS011;14785;52.556;13.430;2022-12-07T01:33:22;10.02;;;5.13;;
27293;SDS011;14785;52.556;13.430;2022-12-07T01:35:48;8.40;;;5.50;;
27293;SDS011;14785;52.556;13.430;2022-12-07T01:38:13;10.57;;;6.30;;
27293;SDS011;14785;52.556;13.430;2022-12-07T01:40:38;9.70;;;5.27;;
27293;SDS011;14785;52.556;13.430;2022-12-07T01:43:09;10.73;;;6.60;;
27293;SDS011;14785;52.556;13.430;2022-12-07T01:45:42;15.07;;;6.75;;
27293;SDS011;14785;52.556;13.430;2022-12-07T01:48:08;11.10;;;5.73;;
27293;SDS011;14785;52.556;13.430;2022-12-07T01:50:37;9.35;;;5.70;;
27293;SDS011;14785;52.556;13.430;2022-12-07T01:53:04;12.70;;;5.50;;
27293;SDS011;14785;52.556;13.430;2022-12-07T01:55:34;9.80;;;5.63;;
27293;SDS011;14785;52.556;13.430;2022-12-07T01:58:03;14.25;;;4.97;;
27293;SDS011;14785;52.556;13.430;2022-12-07T02:00:29;6.60;;;4.78;;
27293;SDS011;14785;52.556;13.430;2022-12-07T02:03:07;10.52;;;5.45;;
27293;SDS011;14785;52.556;13.430;2022-12-07T02:05:53;8.30;;;4.88;;
27293;SDS011;14785;52.556;13.430;2022-12-07T02:08:20;7.72;;;4.78;;
27293;SDS011;14785;52.556;13.430;2022-12-07T02:10:46;10.43;;;4.95;;
27293;SDS011;14785;52.556;13.430;2022-12-07T02:30:11;8.63;;;4.00;;
27293;SDS011;14785;52.556;13.430;2022-12-07T02:32:50;6.70;;;3.95;;
27293;SDS011;14785;52.556;13.430;2022-12-07T02:38:11;7.38;;;4.40;;
27293;SDS011;14785;52.556;13.430;2022-12-07T02:40:57;9.13;;;3.90;;
27293;SDS011;14785;52.556;13.430;2022-12-07T02:43:38;6.03;;;4.15;;
27293;SDS011;14785;52.556;13.430;2022-12-07T02:46:10;10.93;;;4.32;;
27293;SDS011;14785;52.556;13.430;2022-12-07T02:48:41;6.32;;;4.22;;
27293;SDS011;14785;52.556;13.430;2022-12-07T02:51:08;8.52;;;5.43;;
27293;SDS011;14785;52.556;13.430;2022-12-07T02:53:36;12.43;;;4.85;;
27293;SDS011;14785;52.556;13.430;2022-12-07T02:56:14;10.82;;;5.88;;
27293;SDS011;14785;52.556;13.430;2022-12-07T03:07:57;10.52;;;5.55;;
27293;SDS011;14785;52.556;13.430;2022-12-07T03:16:17;12.13;;;5.55;;
27293;SDS011;14785;52.556;13.430;2022-12-07T03:18:57;8.45;;;5.20;;
27293;SDS011;14785;52.556;13.430;2022-12-07T03:21:31;8.75;;;5.35;;
27293;SDS011;14785;52.556;13.430;2022-12-07T03:24:13;9.93;;;5.63;;
27293;SDS011;14785;52.556;13.430;2022-12-07T03:26:51;14.32;;;7.13;;
27293;SDS011;14785;52.556;13.430;2022-12-07T03:29:22;13.02;;;7.00;;
27293;SDS011;14785;52.556;13.430;2022-12-07T03:32:00;12.32;;;7.32;;
27293;SDS011;14785;52.556;13.430;2022-12-07T03:34:32;10.27;;;6.72;;
27293;SDS011;14785;52.556;13.430;2022-12-07T03:37:04;10.95;;;7.03;;
27293;SDS011;14785;52.556;13.430;2022-12-07T03:39:35;12.60;;;7.47;;
27293;SDS011;14785;52.556;13.430;2022-12-07T03:42:06;13.63;;;8.00;;
27293;SDS011;14785;52.556;13.430;2022-12-07T03:44:34;17.55;;;7.78;;
27293;SDS011;14785;52.556;13.430;2022-12-07T03:52:12;16.83;;;8.75;;
27293;SDS011;14785;52.556;13.430;2022-12-07T03:54:46;17.58;;;8.43;;
27293;SDS011;14785;52.556;13.430;2022-12-07T03:57:17;16.95;;;7.85;;
27293;SDS011;14785;52.556;13.430;2022-12-07T03:59:43;14.45;;;8.30;;
27293;SDS011;14785;52.556;13.430;2022-12-07T04:02:11;18.02;;;9.35;;
27293;SDS011;14785;52.556;13.430;2022-12-07T04:04:38;19.63;;;8.73;;
27293;SDS011;14785;52.556;13.430;2022-12-07T04:07:04;17.27;;;7.43;;
27293;SDS011;14785;52.556;13.430;2022-12-07T04:09:30;20.63;;;9.83;;
27293;SDS011;14785;52.556;13.430;2022-12-07T04:11:55;20.00;;;8.77;;
27293;SDS011;14785;52.556;13.430;2022-12-07T04:14:21;18.33;;;9.98;;
27293;SDS011;14785;52.556;13.430;2022-12-07T04:16:49;22.05;;;8.77;;
27293;SDS011;14785;52.556;13.430;2022-12-07T04:19:18;17.27;;;9.50;;
27293;SDS011;14785;52.556;13.430;2022-12-07T04:21:45;18.63;;;9.43;;
27293;SDS011;14785;52.556;13.430;2022-12-07T04:26:37;19.83;;;9.65;;
27293;SDS011;14785;52.556;13.430;2022-12-07T04:29:03;19.20;;;8.83;;
27293;SDS011;14785;52.556;13.430;2022-12-07T04:31:28;18.70;;;9.10;;
27293;SDS011;14785;52.556;13.430;2022-12-07T04:33:53;23.13;;;9.90;;
27293;SDS011;14785;52.556;13.430;2022-12-07T04:36:20;21.25;;;9.90;;
27293;SDS011;14785;52.556;13.430;2022-12-07T04:38:46;21.93;;;10.97;;
27293;SDS011;14785;52.556;13.430;2022-12-07T04:41:12;19.38;;;10.98;;
27293;SDS011;14785;52.556;13.430;2022-12-07T04:43:38;23.05;;;11.65;;
27293;SDS011;14785;52.556;13.430;2022-12-07T04:46:03;24.03;;;11.53;;
27293;SDS011;14785;52.556;13.430;2022-12-07T04:48:29;29.43;;;10.63;;
27293;SDS011;14785;52.556;13.430;2022-12-07T04:50:54;16.03;;;9.93;;
27293;SDS011;14785;52.556;13.430;2022-12-07T04:53:20;17.10;;;9.23;;
27293;SDS011;14785;52.556;13.430;2022-12-07T04:55:45;21.03;;;11.20;;
27293;SDS011;14785;52.556;13.430;2022-12-07T04:58:11;26.87;;;11.97;;
27293;SDS011;14785;52.556;13.430;2022-12-07T05:03:03;22.65;;;11.45;;
27293;SDS011;14785;52.556;13.430;2022-12-07T05:05:28;32.43;;;12.67;;
27293;SDS011;14785;52.556;13.430;2022-12-07T05:07:54;28.43;;;12.60;;
27293;SDS011;14785;52.556;13.430;2022-12-07T05:10:19;28.00;;;12.97;;
27293;SDS011;14785;52.556;13.430;2022-12-07T05:12:44;31.60;;;13.80;;
27293;SDS011;14785;52.556;13.430;2022-12-07T05:15:13;33.95;;;13.95;;
27293;SDS011;14785;52.556;13.430;2022-12-07T05:17:40;38.25;;;12.93;;
27293;SDS011;14785;52.556;13.430;2022-12-07T05:20:06;37.00;;;16.08;;
27293;SDS011;14785;52.556;13.430;2022-12-07T05:22:32;39.97;;;16.10;;
27293;SDS011;14785;52.556;13.430;2022-12-07T05:24:58;32.65;;;15.38;;
27293;SDS011;14785;52.556;13.430;2022-12-07T05:27:25;41.53;;;15.35;;
27293;SDS011;14785;52.556;13.430;2022-12-07T05:29:51;36.70;;;14.63;;
27293;SDS011;14785;52.556;13.430;2022-12-07T05:32:16;40.77;;;16.23;;
27293;SDS011;14785;52.556;13.430;2022-12-07T05:34:42;41.60;;;16.15;;
27293;SDS011;14785;52.556;13.430;2022-12-07T05:37:07;35.77;;;16.77;;
27293;SDS011;14785;52.556;13.430;2022-12-07T05:39:33;38.37;;;17.73;;
27293;SDS011;14785;52.556;13.430;2022-12-07T05:41:58;36.37;;;16.50;;
27293;SDS011;14785;52.556;13.430;2022-12-07T05:47:10;33.30;;;17.40;;
27293;SDS011;14785;52.556;13.430;2022-12-07T05:52:03;45.90;;;16.30;;
27293;SDS011;14785;52.556;13.430;2022-12-07T05:54:29;32.25;;;16.45;;
27293;SDS011;14785;52.556;13.430;2022-12-07T05:56:54;44.53;;;18.60;;
27293;SDS011;14785;52.556;13.430;2022-12-07T05:59:20;36.53;;;15.37;;
27293;SDS011;14785;52.556;13.430;2022-12-07T06:01:52;52.42;;;18.15;;
27293;SDS011;14785;52.556;13.430;2022-12-07T06:04:26;33.58;;;16.30;;
27293;SDS011;14785;52.556;13.430;2022-12-07T06:06:54;35.10;;;16.90;;
27293;SDS011;14785;52.556;13.430;2022-12-07T06:09:20;39.75;;;15.23;;
27293;SDS011;14785;52.556;13.430;2022-12-07T06:11:48;35.45;;;15.95;;
27293;SDS011;14785;52.556;13.430;2022-12-07T06:14:33;41.10;;;16.40;;
27293;SDS011;14785;52.556;13.430;2022-12-07T06:16:58;30.63;;;14.70;;
27293;SDS011;14785;52.556;13.430;2022-12-07T06:19:24;27.52;;;15.57;;
27293;SDS011;14785;52.556;13.430;2022-12-07T06:21:51;40.77;;;15.97;;
27293;SDS011;14785;52.556;13.430;2022-12-07T06:24:18;31.85;;;15.68;;
27293;SDS011;14785;52.556;13.430;2022-12-07T06:26:44;43.80;;;17.57;;
27293;SDS011;14785;52.556;13.430;2022-12-07T06:29:11;29.85;;;13.38;;
27293;SDS011;14785;52.556;13.430;2022-12-07T06:31:37;29.83;;;14.02;;
27293;SDS011;14785;52.556;13.430;2022-12-07T06:34:05;28.10;;;13.38;;
27293;SDS011;14785;52.556;13.430;2022-12-07T06:36:34;37.38;;;14.02;;
27293;SDS011;14785;52.556;13.430;2022-12-07T06:38:59;41.47;;;15.20;;
27293;SDS011;14785;52.556;13.430;2022-12-07T06:41:24;34.13;;;13.63;;
27293;SDS011;14785;52.556;13.430;2022-12-07T06:43:50;30.47;;;13.43;;
27293;SDS011;14785;52.556;13.430;2022-12-07T06:46:16;31.05;;;14.70;;
27293;SDS011;14785;52.556;13.430;2022-12-07T06:48:42;39.28;;;15.75;;
27293;SDS011;14785;52.556;13.430;2022-12-07T06:51:08;26.92;;;14.07;;
27293;SDS011;14785;52.556;13.430;2022-12-07T06:53:33;35.05;;;15.32;;
27293;SDS011;14785;52.556;13.430;2022-12-07T06:58:25;37.10;;;15.43;;
27293;SDS011;14785;52.556;13.430;2022-12-07T07:00:52;28.92;;;14.63;;
27293;SDS011;14785;52.556;13.430;2022-12-07T07:03:20;30.20;;;14.60;;
27293;SDS011;14785;52.556;13.430;2022-12-07T07:05:45;31.83;;;15.07;;
27293;SDS011;14785;52.556;13.430;2022-12-07T07:08:11;38.50;;;15.77;;
27293;SDS011;14785;52.556;13.430;2022-12-07T07:13:03;36.42;;;15.65;;
27293;SDS011;14785;52.556;13.430;2022-12-07T07:15:31;35.78;;;13.40;;
27293;SDS011;14785;52.556;13.430;2022-12-07T07:17:57;27.90;;;13.50;;
27293;SDS011;14785;52.556;13.430;2022-12-07T07:20:23;23.77;;;13.27;;
27293;SDS011;14785;52.556;13.430;2022-12-07T07:22:49;37.25;;;15.68;;
27293;SDS011;14785;52.556;13.430;2022-12-07T07:25:15;26.73;;;12.97;;
27293;SDS011;14785;52.556;13.430;2022-12-07T07:27:41;34.13;;;14.40;;
27293;SDS011;14785;52.556;13.430;2022-12-07T07:30:07;31.90;;;14.73;;
27293;SDS011;14785;52.556;13.430;2022-12-07T07:32:33;37.72;;;12.85;;
27293;SDS011;14785;52.556;13.430;2022-12-07T07:34:59;29.97;;;14.17;;
27293;SDS011;14785;52.556;13.430;2022-12-07T07:37:24;28.80;;;13.40;;
27293;SDS011;14785;52.556;13.430;2022-12-07T07:39:50;28.40;;;10.70;;
27293;SDS011;14785;52.556;13.430;2022-12-07T07:42:15;28.57;;;11.43;;
27293;SDS011;14785;52.556;13.430;2022-12-07T07:44:41;33.23;;;11.23;;
27293;SDS011;14785;52.556;13.430;2022-12-07T07:47:07;30.58;;;10.05;;
27293;SDS011;14785;52.556;13.430;2022-12-07T07:49:33;22.83;;;10.93;;
27293;SDS011;14785;52.556;13.430;2022-12-07T07:51:59;20.83;;;10.23;;
27293;SDS011;14785;52.556;13.430;2022-12-07T07:54:24;26.53;;;11.30;;
27293;SDS011;14785;52.556;13.430;2022-12-07T07:56:50;23.00;;;9.07;;
27293;SDS011;14785;52.556;13.430;2022-12-07T07:59:15;24.33;;;10.57;;
27293;SDS011;14785;52.556;13.430;2022-12-07T08:01:41;17.90;;;9.03;;
27293;SDS011;14785;52.556;13.430;2022-12-07T08:04:06;15.30;;;8.83;;
27293;SDS011;14785;52.556;13.430;2022-12-07T08:06:32;20.83;;;8.32;;
27293;SDS011;14785;52.556;13.430;2022-12-07T08:08:58;16.70;;;8.60;;
27293;SDS011;14785;52.556;13.430;2022-12-07T08:11:24;42.30;;;7.97;;
27293;SDS011;14785;52.556;13.430;2022-12-07T08:13:50;13.35;;;7.07;;
27293;SDS011;14785;52.556;13.430;2022-12-07T08:16:16;14.40;;;6.07;;
27293;SDS011;14785;52.556;13.430;2022-12-07T08:18:41;14.83;;;6.47;;
27293;SDS011;14785;52.556;13.430;2022-12-07T08:21:08;15.40;;;6.13;;
27293;SDS011;14785;52.556;13.430;2022-12-07T08:23:37;14.00;;;6.55;;
27293;SDS011;14785;52.556;13.430;2022-12-07T08:26:03;15.48;;;5.57;;
27293;SDS011;14785;52.556;13.430;2022-12-07T08:28:31;8.35;;;4.63;;
27293;SDS011;14785;52.556;13.430;2022-12-07T08:31:00;7.35;;;4.43;;
27293;SDS011;14785;52.556;13.430;2022-12-07T08:33:33;19.90;;;5.93;;
27293;SDS011;14785;52.556;13.430;2022-12-07T08:38:26;10.93;;;5.00;;
27293;SDS011;14785;52.556;13.430;2022-12-07T08:40:54;10.35;;;4.90;;
27293;SDS011;14785;52.556;13.430;2022-12-07T08:43:21;5.72;;;3.70;;
27293;SDS011;14785;52.556;13.430;2022-12-07T08:45:47;6.22;;;2.83;;
27293;SDS011;14785;52.556;13.430;2022-12-07T08:48:19;8.77;;;3.60;;
27293;SDS011;14785;52.556;13.430;2022-12-07T08:50:47;5.38;;;3.22;;
27293;SDS011;14785;52.556;13.430;2022-12-07T08:53:14;3.63;;;2.83;;
27293;SDS011;14785;52.556;13.430;2022-12-07T08:55:40;5.70;;;3.70;;
27293;SDS011;14785;52.556;13.430;2022-12-07T08:58:07;3.67;;;2.80;;
27293;SDS011;14785;52.556;13.430;2022-12-07T09:00:32;4.57;;;2.33;;
27293;SDS011;14785;52.556;13.430;2022-12-07T09:02:58;8.57;;;2.80;;
27293;SDS011;14785;52.556;13.430;2022-12-07T09:05:23;5.87;;;2.87;;
27293;SDS011;14785;52.556;13.430;2022-12-07T09:07:51;4.50;;;2.37;;
27293;SDS011;14785;52.556;13.430;2022-12-07T09:10:20;4.57;;;3.08;;
27293;SDS011;14785;52.556;13.430;2022-12-07T09:12:46;6.63;;;1.73;;
27293;SDS011;14785;52.556;13.430;2022-12-07T09:15:11;3.10;;;2.00;;
27293;SDS011;14785;52.556;13.430;2022-12-07T09:17:36;2.37;;;1.60;;
27293;SDS011;14785;52.556;13.430;2022-12-07T09:20:03;3.60;;;2.40;;
27293;SDS011;14785;52.556;13.430;2022-12-07T09:22:30;6.57;;;2.10;;
27293;SDS011;14785;52.556;13.430;2022-12-07T09:24:57;1.90;;;1.23;;
27293;SDS011;14785;52.556;13.430;2022-12-07T09:27:23;2.70;;;1.63;;
27293;SDS011;14785;52.556;13.430;2022-12-07T09:29:49;3.03;;;1.95;;
27293;SDS011;14785;52.556;13.430;2022-12-07T09:32:14;2.10;;;1.60;;
27293;SDS011;14785;52.556;13.430;2022-12-07T09:34:39;1.63;;;1.13;;
27293;SDS011;14785;52.556;13.430;2022-12-07T09:37:05;2.33;;;1.83;;
27293;SDS011;14785;52.556;13.430;2022-12-07T09:39:31;4.25;;;1.75;;
27293;SDS011;14785;52.556;13.430;2022-12-07T09:44:24;2.65;;;1.92;;
27293;SDS011;14785;52.556;13.430;2022-12-07T09:46:51;4.00;;;1.73;;
27293;SDS011;14785;52.556;13.430;2022-12-07T09:49:19;2.95;;;1.75;;
27293;SDS011;14785;52.556;13.430;2022-12-07T09:51:47;1.60;;;1.38;;
27293;SDS011;14785;52.556;13.430;2022-12-07T09:54:13;2.88;;;1.83;;
27293;SDS011;14785;52.556;13.430;2022-12-07T09:56:41;2.05;;;1.25;;
27293;SDS011;14785;52.556;13.430;2022-12-07T09:59:09;2.45;;;1.30;;
27293;SDS011;14785;52.556;13.430;2022-12-07T10:01:45;3.45;;;1.80;;
27293;SDS011;14785;52.556;13.430;2022-12-07T10:04:16;2.10;;;1.38;;
27293;SDS011;14785;52.556;13.430;2022-12-07T10:06:51;1.50;;;1.13;;
27293;SDS011;14785;52.556;13.430;2022-12-07T10:09:18;2.95;;;1.67;;
27293;SDS011;14785;52.556;13.430;2022-12-07T10:11:58;1.92;;;1.35;;
27293;SDS011;14785;52.556;13.430;2022-12-07T10:14:24;2.55;;;1.30;;
27293;SDS011;14785;52.556;13.430;2022-12-07T10:16:52;2.75;;;1.17;;
27293;SDS011;14785;52.556;13.430;2022-12-07T10:19:29;2.13;;;1.00;;
27293;SDS011;14785;52.556;13.430;2022-12-07T10:24:34;2.03;;;1.17;;
27293;SDS011;14785;52.556;13.430;2022-12-07T10:27:02;3.90;;;1.50;;
27293;SDS011;14785;52.556;13.430;2022-12-07T10:32:21;2.75;;;1.15;;
27293;SDS011;14785;52.556;13.430;2022-12-07T10:35:15;2.35;;;1.58;;
27293;SDS011;14785;52.556;13.430;2022-12-07T10:37:50;2.28;;;1.30;;
27293;SDS011;14785;52.556;13.430;2022-12-07T10:40:33;2.15;;;1.38;;
27293;SDS011;14785;52.556;13.430;2022-12-07T10:43:01;1.42;;;1.25;;
27293;SDS011;14785;52.556;13.430;2022-12-07T10:45:41;2.63;;;1.02;;
27293;SDS011;14785;52.556;13.430;2022-12-07T10:53:59;2.92;;;1.50;;
27293;SDS011;14785;52.556;13.430;2022-12-07T11:02:06;2.70;;;1.58;;
27293;SDS011;14785;52.556;13.430;2022-12-07T11:05:10;3.83;;;1.88;;
27293;SDS011;14785;52.556;13.430;2022-12-07T11:08:37;3.58;;;2.33;;
27293;SDS011;14785;52.556;13.430;2022-12-07T11:18:48;3.40;;;2.00;;
27293;SDS011;14785;52.556;13.430;2022-12-07T11:24:16;2.67;;;2.00;;
27293;SDS011;14785;52.556;13.430;2022-12-07T11:29:23;3.85;;;1.50;;
27293;SDS011;14785;52.556;13.430;2022-12-07T11:37:55;1.80;;;1.70;;
27293;SDS011;14785;52.556;13.430;2022-12-07T11:40:26;3.40;;;2.17;;
27293;SDS011;14785;52.556;13.430;2022-12-07T11:43:13;2.53;;;1.70;;
27293;SDS011;14785;52.556;13.430;2022-12-07T11:45:44;5.03;;;1.83;;
27293;SDS011;14785;52.556;13.430;2022-12-07T11:48:24;3.67;;;1.73;;
27293;SDS011;14785;52.556;13.430;2022-12-07T11:50:59;3.83;;;2.15;;
27293;SDS011;14785;52.556;13.430;2022-12-07T11:53:28;4.85;;;2.00;;
27293;SDS011;14785;52.556;13.430;2022-12-07T11:56:03;4.57;;;2.67;;
27293;SDS011;14785;52.556;13.430;2022-12-07T11:58:48;4.15;;;2.38;;
27293;SDS011;14785;52.556;13.430;2022-12-07T12:06:35;5.68;;;2.45;;
27293;SDS011;14785;52.556;13.430;2022-12-07T12:17:48;5.07;;;2.35;;
27293;SDS011;14785;52.556;13.430;2022-12-07T12:25:48;3.80;;;2.20;;
27293;SDS011;14785;52.556;13.430;2022-12-07T12:28:28;3.55;;;2.20;;
27293;SDS011;14785;52.556;13.430;2022-12-07T12:31:14;6.78;;;2.85;;
27293;SDS011;14785;52.556;13.430;2022-12-07T12:33:55;5.93;;;2.17;;
27293;SDS011;14785;52.556;13.430;2022-12-07T12:39:12;3.17;;;1.85;;
27293;SDS011;14785;52.556;13.430;2022-12-07T12:46:56;2.40;;;1.40;;
27293;SDS011;14785;52.556;13.430;2022-12-07T12:51:52;3.30;;;1.87;;
27293;SDS011;14785;52.556;13.430;2022-12-07T12:54:26;5.00;;;2.10;;
27293;SDS011;14785;52.556;13.430;2022-12-07T13:02:31;2.53;;;1.40;;
27293;SDS011;14785;52.556;13.430;2022-12-07T13:07:47;3.03;;;2.17;;
27293;SDS011;14785;52.556;13.430;2022-12-07T13:23:28;7.70;;;2.10;;
27293;SDS011;14785;52.556;13.430;2022-12-07T13:31:35;4.50;;;1.63;;
27293;SDS011;14785;52.556;13.430;2022-12-07T13:34:04;5.40;;;2.22;;
27293;SDS011;14785;52.556;13.430;2022-12-07T13:36:49;2.35;;;1.40;;
27293;SDS011;14785;52.556;13.430;2022-12-07T13:39:18;5.15;;;2.20;;
27293;SDS011;14785;52.556;13.430;2022-12-07T13:41:52;2.17;;;1.48;;
27293;SDS011;14785;52.556;13.430;2022-12-07T13:44:20;4.60;;;1.75;;
27293;SDS011;14785;52.556;13.430;2022-12-07T13:49:48;5.28;;;2.35;;
27293;SDS011;14785;52.556;13.430;2022-12-07T13:52:20;3.92;;;1.63;;
27293;SDS011;14785;52.556;13.430;2022-12-07T13:54:56;6.22;;;1.63;;
27293;SDS011;14785;52.556;13.430;2022-12-07T13:57:24;3.60;;;1.50;;
27293;SDS011;14785;52.556;13.430;2022-12-07T13:59:51;3.78;;;1.48;;
27293;SDS011;14785;52.556;13.430;2022-12-07T14:02:27;4.20;;;1.58;;
27293;SDS011;14785;52.556;13.430;2022-12-07T14:05:14;3.08;;;1.35;;
27293;SDS011;14785;52.556;13.430;2022-12-07T14:07:55;5.43;;;2.28;;
27293;SDS011;14785;52.556;13.430;2022-12-07T14:12:55;4.80;;;1.00;;
27293;SDS011;14785;52.556;13.430;2022-12-07T14:15:23;1.80;;;1.15;;
27293;SDS011;14785;52.556;13.430;2022-12-07T14:17:55;1.75;;;0.95;;
27293;SDS011;14785;52.556;13.430;2022-12-07T14:20:35;6.60;;;1.15;;
27293;SDS011;14785;52.556;13.430;2022-12-07T14:23:02;5.18;;;1.75;;
27293;SDS011;14785;52.556;13.430;2022-12-07T14:25:47;6.05;;;1.50;;
27293;SDS011;14785;52.556;13.430;2022-12-07T14:30:53;7.50;;;1.80;;
27293;SDS011;14785;52.556;13.430;2022-12-07T14:33:19;3.67;;;1.77;;
27293;SDS011;14785;52.556;13.430;2022-12-07T14:35:46;6.07;;;1.58;;
27293;SDS011;14785;52.556;13.430;2022-12-07T14:38:12;8.00;;;1.58;;
27293;SDS011;14785;52.556;13.430;2022-12-07T14:40:38;4.97;;;1.67;;
27293;SDS011;14785;52.556;13.430;2022-12-07T14:43:04;6.32;;;2.10;;
27293;SDS011;14785;52.556;13.430;2022-12-07T14:45:36;14.05;;;2.10;;
27293;SDS011;14785;52.556;13.430;2022-12-07T14:48:04;5.50;;;1.63;;
27293;SDS011;14785;52.556;13.430;2022-12-07T14:50:30;9.47;;;3.20;;
27293;SDS011;14785;52.556;13.430;2022-12-07T14:53:04;5.00;;;1.30;;
27293;SDS011;14785;52.556;13.430;2022-12-07T14:55:37;4.07;;;1.60;;
27293;SDS011;14785;52.556;13.430;2022-12-07T14:58:02;3.10;;;1.13;;
27293;SDS011;14785;52.556;13.430;2022-12-07T15:00:28;6.93;;;1.65;;
27293;SDS011;14785;52.556;13.430;2022-12-07T15:02:54;2.47;;;1.70;;
27293;SDS011;14785;52.556;13.430;2022-12-07T15:05:21;5.32;;;1.45;;
27293;SDS011;14785;52.556;13.430;2022-12-07T15:07:47;2.05;;;1.75;;
27293;SDS011;14785;52.556;13.430;2022-12-07T15:10:34;1.92;;;1.60;;
27293;SDS011;14785;52.556;13.430;2022-12-07T15:12:59;4.40;;;1.90;;
27293;SDS011;14785;52.556;13.430;2022-12-07T15:15:46;6.07;;;2.13;;
27293;SDS011;14785;52.556;13.430;2022-12-07T15:18:13;4.70;;;2.33;;
27293;SDS011;14785;52.556;13.430;2022-12-07T15:20:39;7.65;;;2.28;;
27293;SDS011;14785;52.556;13.430;2022-12-07T15:23:04;3.87;;;1.50;;
27293;SDS011;14785;52.556;13.430;2022-12-07T15:25:30;2.40;;;1.40;;
27293;SDS011;14785;52.556;13.430;2022-12-07T15:27:56;4.20;;;1.27;;
27293;SDS011;14785;52.556;13.430;2022-12-07T15:30:21;2.20;;;1.00;;
27293;SDS011;14785;52.556;13.430;2022-12-07T15:32:50;5.80;;;1.67;;
27293;SDS011;14785;52.556;13.430;2022-12-07T15:35:16;4.35;;;1.15;;
27293;SDS011;14785;52.556;13.430;2022-12-07T15:37:42;3.92;;;2.08;;
27293;SDS011;14785;52.556;13.430;2022-12-07T15:40:08;5.83;;;2.07;;
27293;SDS011;14785;52.556;13.430;2022-12-07T15:42:34;4.72;;;1.60;;
27293;SDS011;14785;52.556;13.430;2022-12-07T15:45:00;6.28;;;1.60;;
27293;SDS011;14785;52.556;13.430;2022-12-07T15:47:29;5.75;;;1.70;;
27293;SDS011;14785;52.556;13.430;2022-12-07T15:49:55;17.65;;;1.75;;
27293;SDS011;14785;52.556;13.430;2022-12-07T15:52:21;3.77;;;2.13;;
27293;SDS011;14785;52.556;13.430;2022-12-07T15:54:46;3.63;;;1.80;;
27293;SDS011;14785;52.556;13.430;2022-12-07T15:57:12;3.13;;;1.65;;
27293;SDS011;14785;52.556;13.430;2022-12-07T15:59:38;3.20;;;1.80;;
27293;SDS011;14785;52.556;13.430;2022-12-07T16:02:03;7.77;;;2.50;;
27293;SDS011;14785;52.556;13.430;2022-12-07T16:04:29;6.47;;;1.30;;
27293;SDS011;14785;52.556;13.430;2022-12-07T16:06:55;9.63;;;1.97;;
27293;SDS011;14785;52.556;13.430;2022-12-07T16:11:46;5.72;;;1.65;;
27293;SDS011;14785;52.556;13.430;2022-12-07T16:14:12;3.60;;;1.93;;
27293;SDS011;14785;52.556;13.430;2022-12-07T16:16:37;6.32;;;1.48;;
27293;SDS011;14785;52.556;13.430;2022-12-07T16:19:05;2.75;;;1.77;;
27293;SDS011;14785;52.556;13.430;2022-12-07T16:21:33;4.15;;;1.63;;
27293;SDS011;14785;52.556;13.430;2022-12-07T16:23:59;4.22;;;1.17;;
27293;SDS011;14785;52.556;13.430;2022-12-07T16:26:25;8.43;;;1.60;;
27293;SDS011;14785;52.556;13.430;2022-12-07T16:28:51;3.67;;;1.87;;
27293;SDS011;14785;52.556;13.430;2022-12-07T16:31:18;6.07;;;1.98;;
27293;SDS011;14785;52.556;13.430;2022-12-07T16:33:45;2.58;;;0.95;;
27293;SDS011;14785;52.556;13.430;2022-12-07T16:36:11;3.38;;;1.65;;
27293;SDS011;14785;52.556;13.430;2022-12-07T16:38:40;6.43;;;1.52;;
27293;SDS011;14785;52.556;13.430;2022-12-07T16:41:08;4.85;;;1.60;;
27293;SDS011;14785;52.556;13.430;2022-12-07T16:46:03;9.25;;;1.35;;
27293;SDS011;14785;52.556;13.430;2022-12-07T16:48:30;3.13;;;1.90;;
27293;SDS011;14785;52.556;13.430;2022-12-07T16:50:56;3.80;;;1.67;;
27293;SDS011;14785;52.556;13.430;2022-12-07T16:53:22;2.50;;;1.57;;
27293;SDS011;14785;52.556;13.430;2022-12-07T16:55:49;5.38;;;1.80;;
27293;SDS011;14785;52.556;13.430;2022-12-07T16:58:15;6.82;;;2.13;;
27293;SDS011;14785;52.556;13.430;2022-12-07T17:00:41;18.20;;;3.22;;
27293;SDS011;14785;52.556;13.430;2022-12-07T17:03:08;1.77;;;1.40;;
27293;SDS011;14785;52.556;13.430;2022-12-07T17:05:41;5.00;;;1.83;;
27293;SDS011;14785;52.556;13.430;2022-12-07T17:08:09;3.80;;;1.35;;
27293;SDS011;14785;52.556;13.430;2022-12-07T17:10:36;7.45;;;1.98;;
27293;SDS011;14785;52.556;13.430;2022-12-07T17:13:05;8.45;;;2.00;;
27293;SDS011;14785;52.556;13.430;2022-12-07T17:15:55;4.28;;;1.50;;
27293;SDS011;14785;52.556;13.430;2022-12-07T17:18:21;2.60;;;1.17;;
27293;SDS011;14785;52.556;13.430;2022-12-07T17:20:46;2.00;;;1.20;;
27293;SDS011;14785;52.556;13.430;2022-12-07T17:23:12;3.53;;;1.70;;
27293;SDS011;14785;52.556;13.430;2022-12-07T17:25:37;10.60;;;1.50;;
27293;SDS011;14785;52.556;13.430;2022-12-07T17:28:03;3.78;;;1.65;;